Plum Lake, Wisconsin
Current Conditions -  °F | °C
As of 10:15 AM on Sunday 21 Dec 2014 (Local Time) from KARV Reporting Station
Haze Haze  
Wind Chill: 24°   Ceiling: 700
Heat Index: 32°   Visibility: 4mi
Dew Point: 30°   Wind: 9mph
Humidity: 92%   Direction: 170°S
Pressure: 29.97"   Gusts: 16mph
Location:  46.0162°N, 89.524°W
Report Text: KARV 211615Z AUTO 17008G14KT 4SM BR OVC007 00/M01 A2997 RMK AO2 T10011013
Loading
Personal Weather Stations






























Interactive Weather Map New forecast layout! Learn more

10-Day Weather Forecast

Advertisements
Track Severe Weather on mobile